createdAt,value
2023-04-20T03:59:01.039Z,1013.80
2023-04-20T04:00:00.888Z,1013.84
2023-04-20T04:01:00.853Z,1013.82
2023-04-20T04:02:00.904Z,1013.87
2023-04-20T04:03:01.039Z,1013.89
2023-04-20T04:04:01.017Z,1013.91
2023-04-20T04:05:00.994Z,1013.93
2023-04-20T04:06:00.815Z,1013.93
2023-04-20T04:07:00.821Z,1013.92
2023-04-20T04:08:00.798Z,1013.90
2023-04-20T04:09:00.787Z,1013.88
2023-04-20T04:10:00.877Z,1013.90
2023-04-20T04:11:00.787Z,1013.95
2023-04-20T04:12:00.811Z,1013.98
2023-04-20T04:13:00.775Z,1013.94
2023-04-20T04:14:00.817Z,1013.94
2023-04-20T04:15:00.791Z,1013.98
2023-04-20T04:16:00.756Z,1013.97
2023-04-20T04:17:00.853Z,1014.00
2023-04-20T04:18:00.804Z,1014.03
2023-04-20T04:19:00.752Z,1014.02
2023-04-20T04:20:00.748Z,1013.98
2023-04-20T04:21:00.750Z,1014.06
2023-04-20T04:22:00.743Z,1014.04
2023-04-20T04:23:00.762Z,1013.99
2023-04-20T04:24:00.726Z,1014.03
2023-04-20T04:25:00.738Z,1014.03
2023-04-20T04:26:00.725Z,1014.09
2023-04-20T04:27:00.722Z,1014.06
2023-04-20T04:28:00.741Z,1014.06
2023-04-20T04:29:00.745Z,1014.10
2023-04-20T04:30:00.732Z,1014.13
2023-04-20T04:31:00.803Z,1014.11
2023-04-20T04:32:00.704Z,1014.05
2023-04-20T04:33:00.719Z,1014.10
2023-04-20T04:34:00.723Z,1014.05
2023-04-20T04:35:00.723Z,1014.03
2023-04-20T04:36:00.763Z,1014.01
2023-04-20T04:37:00.689Z,1013.98
2023-04-20T04:38:00.715Z,1013.98
2023-04-20T04:39:00.698Z,1013.95
2023-04-20T04:40:00.686Z,1013.98
2023-04-20T04:41:00.680Z,1014.02
2023-04-20T04:42:00.940Z,1013.98
2023-04-20T04:43:00.695Z,1013.94
2023-04-20T04:44:00.685Z,1013.96
2023-04-20T04:45:00.661Z,1013.90
2023-04-20T04:46:00.676Z,1013.92
2023-04-20T04:47:00.655Z,1013.90
2023-04-20T04:48:00.695Z,1013.86
2023-04-20T04:49:00.644Z,1013.89
2023-04-20T04:50:00.654Z,1013.96
2023-04-20T04:51:00.651Z,1013.92
2023-04-20T04:52:00.621Z,1013.93
2023-04-20T04:53:00.700Z,1013.92
2023-04-20T04:54:00.634Z,1013.89
2023-04-20T04:55:00.625Z,1013.91
2023-04-20T04:56:00.618Z,1013.93
2023-04-20T04:57:00.607Z,1013.93
2023-04-20T04:58:00.637Z,1013.96
2023-04-20T04:59:00.614Z,1013.93
2023-04-20T05:00:00.630Z,1013.93
2023-04-20T05:01:00.636Z,1013.93
2023-04-20T05:02:00.640Z,1013.93
2023-04-20T05:03:00.808Z,1013.96
2023-04-20T05:04:00.823Z,1013.96
2023-04-20T05:05:00.589Z,1013.94
2023-04-20T05:06:00.597Z,1013.95
2023-04-20T05:07:00.578Z,1013.98
2023-04-20T05:08:00.575Z,1013.99
2023-04-20T05:09:00.578Z,1013.94
2023-04-20T05:10:00.574Z,1013.98
2023-04-20T05:11:00.562Z,1013.99
2023-04-20T05:12:00.559Z,1013.98
2023-04-20T05:13:00.567Z,1013.98
2023-04-20T05:14:00.578Z,1014.02
2023-04-20T05:15:00.601Z,1014.03
2023-04-20T05:16:00.574Z,1014.06
2023-04-20T05:17:00.545Z,1014.05
2023-04-20T05:18:00.597Z,1014.08
2023-04-20T05:19:00.543Z,1014.10
2023-04-20T05:20:00.550Z,1014.10
2023-04-20T05:21:00.539Z,1014.10
2023-04-20T05:22:00.521Z,1014.10
2023-04-20T05:23:00.542Z,1014.07
2023-04-20T05:24:00.556Z,1014.09
2023-04-20T05:25:00.555Z,1014.09
2023-04-20T05:26:00.653Z,1014.08
2023-04-20T05:27:00.504Z,1014.09
2023-04-20T05:28:00.535Z,1014.07
2023-04-20T05:29:00.504Z,1014.16
2023-04-20T05:30:13.181Z,1014.12
2023-04-20T05:31:00.515Z,1014.14
2023-04-20T05:32:00.531Z,1014.06
2023-04-20T05:33:00.539Z,1014.13
2023-04-20T05:34:00.491Z,1014.12
2023-04-20T05:35:00.518Z,1014.06
2023-04-20T05:36:00.522Z,1014.08
2023-04-20T05:37:00.486Z,1014.10
2023-04-20T05:38:00.461Z,1014.14
2023-04-20T05:39:00.470Z,1014.10
2023-04-20T05:40:00.478Z,1014.15
2023-04-20T05:41:00.491Z,1014.16
2023-04-20T05:42:00.503Z,1014.14
2023-04-20T05:43:00.456Z,1014.14
2023-04-20T05:44:00.466Z,1014.12
2023-04-20T05:45:00.503Z,1014.10
2023-04-20T05:46:00.550Z,1014.10
2023-04-20T05:47:00.453Z,1014.15
2023-04-20T05:48:00.451Z,1014.20
2023-04-20T05:49:00.440Z,1014.22
2023-04-20T05:50:00.545Z,1014.21
2023-04-20T05:51:00.501Z,1014.23
2023-04-20T05:52:00.467Z,1014.25
2023-04-20T05:53:00.551Z,1014.27
2023-04-20T05:54:00.792Z,1014.25
2023-04-20T05:55:00.583Z,1014.21
2023-04-20T05:56:01.043Z,1014.24
2023-04-20T05:57:00.594Z,1014.24
2023-04-20T05:58:01.045Z,1014.29
2023-04-20T05:59:00.425Z,1014.28
2023-04-20T06:00:00.634Z,1014.29
2023-04-20T06:01:00.514Z,1014.26
2023-04-20T06:02:00.483Z,1014.25
2023-04-20T06:03:00.610Z,1014.25
2023-04-20T06:04:00.749Z,1014.24
2023-04-20T06:05:00.592Z,1014.23
2023-04-20T06:06:00.427Z,1014.21
2023-04-20T06:07:00.435Z,1014.21
2023-04-20T06:08:00.372Z,1014.15
2023-04-20T06:09:00.403Z,1014.12
2023-04-20T06:10:00.370Z,1014.06
2023-04-20T06:11:00.432Z,1014.04
2023-04-20T06:12:00.399Z,1014.02
2023-04-20T06:13:00.419Z,1014.10
2023-04-20T06:14:00.411Z,1014.19
2023-04-20T06:15:00.391Z,1014.23
2023-04-20T06:16:00.435Z,1014.18
2023-04-20T06:17:00.343Z,1014.13
2023-04-20T06:18:00.397Z,1014.23
2023-04-20T06:19:00.343Z,1014.25
2023-04-20T06:20:00.334Z,1014.25
2023-04-20T06:21:00.338Z,1014.28
2023-04-20T06:22:01.213Z,1014.30
2023-04-20T06:23:00.409Z,1014.26
2023-04-20T06:24:00.400Z,1014.26
2023-04-20T06:25:00.331Z,1014.24
2023-04-20T06:26:00.353Z,1014.26
2023-04-20T06:27:00.343Z,1014.28
2023-04-20T06:29:32.931Z,1014.29
2023-04-20T06:30:32.836Z,1014.27
2023-04-20T06:31:32.886Z,1014.22
2023-04-20T06:32:32.909Z,1014.25
2023-04-20T06:33:32.818Z,1014.21
2023-04-20T06:34:32.821Z,1014.19
2023-04-20T06:35:32.839Z,1014.11
2023-04-20T06:36:32.818Z,1014.09
2023-04-20T06:37:32.810Z,1014.04
2023-04-20T06:38:32.852Z,1014.04
2023-04-20T06:39:32.928Z,1014.08
2023-04-20T06:40:32.818Z,1014.09
2023-04-20T06:41:32.803Z,1014.08
2023-04-20T06:42:32.792Z,1014.08
2023-04-20T06:43:32.804Z,1014.07
2023-04-20T06:44:32.784Z,1014.06
2023-04-20T06:45:34.143Z,1014.09
2023-04-20T06:46:32.817Z,1014.07
2023-04-20T06:47:32.918Z,1014.07
2023-04-20T06:48:33.254Z,1014.08
2023-04-20T06:49:32.780Z,1014.08
2023-04-20T06:50:32.757Z,1014.10
2023-04-20T06:51:32.807Z,1014.11
2023-04-20T06:52:32.741Z,1014.08
2023-04-20T06:53:32.766Z,1014.06
2023-04-20T06:54:32.803Z,1014.08
2023-04-20T06:55:32.756Z,1014.06
2023-04-20T06:56:35.387Z,1014.11
2023-04-20T06:57:32.744Z,1014.06
2023-04-20T06:58:32.730Z,1014.10
2023-04-20T06:59:32.775Z,1014.10
2023-04-20T07:00:32.749Z,1014.08
2023-04-20T07:01:32.864Z,1014.02
2023-04-20T07:02:32.746Z,1014.01
2023-04-20T07:04:32.781Z,1014.07
2023-04-20T07:05:32.814Z,1014.04
2023-04-20T07:06:32.705Z,1014.07
2023-04-20T07:07:32.713Z,1014.08
2023-04-20T07:08:32.701Z,1014.07
2023-04-20T07:09:32.709Z,1014.07
2023-04-20T07:10:32.725Z,1014.06
2023-04-20T07:11:32.716Z,1014.06
2023-04-20T07:12:32.742Z,1014.04
2023-04-20T07:13:33.808Z,1014.03
2023-04-20T07:14:32.770Z,1014.02
2023-04-20T07:15:32.729Z,1014.04
2023-04-20T07:16:32.774Z,1013.99
2023-04-20T07:17:32.682Z,1014.05
2023-04-20T07:18:35.152Z,1014.06
2023-04-20T07:19:32.694Z,1014.04
2023-04-20T07:20:32.728Z,1014.01
2023-04-20T07:21:32.788Z,1014.07
2023-04-20T07:22:32.689Z,1014.03
2023-04-20T07:23:32.724Z,1014.05
2023-04-20T07:24:32.797Z,1014.07
2023-04-20T07:25:32.664Z,1014.06
2023-04-20T07:26:32.854Z,1014.06
2023-04-20T07:27:32.686Z,1014.11
2023-04-20T07:28:32.645Z,1014.10
2023-04-20T07:29:34.024Z,1014.12
2023-04-20T07:30:32.862Z,1014.09
2023-04-20T07:31:35.292Z,1014.12
2023-04-20T07:32:32.820Z,1014.14
2023-04-20T07:33:33.537Z,1014.09
2023-04-20T07:34:32.721Z,1014.13
2023-04-20T07:35:32.680Z,1014.13
2023-04-20T07:36:32.646Z,1014.14
2023-04-20T07:37:32.674Z,1014.10
2023-04-20T07:38:32.788Z,1014.16
2023-04-20T07:39:32.650Z,1014.16
2023-04-20T07:40:32.623Z,1014.17
2023-04-20T07:41:33.029Z,1014.16
2023-04-20T07:42:32.674Z,1014.17
2023-04-20T07:43:32.709Z,1014.18
2023-04-20T07:44:32.630Z,1014.21
2023-04-20T07:45:32.690Z,1014.26
2023-04-20T07:46:32.642Z,1014.23
2023-04-20T07:47:32.763Z,1014.23
2023-04-20T07:48:32.652Z,1014.22
2023-04-20T07:49:32.625Z,1014.18
2023-04-20T07:50:32.766Z,1014.24
2023-04-20T07:51:32.590Z,1014.31
2023-04-20T07:52:32.618Z,1014.23
2023-04-20T07:53:32.633Z,1014.32
2023-04-20T07:54:32.599Z,1014.24
2023-04-20T07:55:33.205Z,1014.23
2023-04-20T07:56:32.699Z,1014.21
2023-04-20T07:57:32.717Z,1014.19
2023-04-20T07:58:32.611Z,1014.18
2023-04-20T07:59:32.777Z,1014.18
2023-04-20T08:00:32.925Z,1014.20
2023-04-20T08:01:32.650Z,1014.23
2023-04-20T08:02:32.744Z,1014.24
2023-04-20T08:03:32.705Z,1014.21
2023-04-20T08:04:32.996Z,1014.20
2023-04-20T08:05:32.729Z,1014.22
2023-04-20T08:06:32.545Z,1014.24
2023-04-20T08:07:32.599Z,1014.20
2023-04-20T08:08:32.564Z,1014.20
2023-04-20T08:09:32.548Z,1014.18
2023-04-20T08:10:32.563Z,1014.20
2023-04-20T08:11:32.549Z,1014.20
2023-04-20T08:12:32.553Z,1014.17
2023-04-20T08:13:32.608Z,1014.18
2023-04-20T08:14:32.540Z,1014.14
2023-04-20T08:15:32.560Z,1014.14
2023-04-20T08:16:32.618Z,1014.17
2023-04-20T08:17:34.099Z,1014.15
2023-04-20T08:18:32.535Z,1014.13
2023-04-20T08:19:32.550Z,1014.14
2023-04-20T08:21:32.535Z,1014.11
2023-04-20T08:22:32.514Z,1014.13
2023-04-20T08:23:32.515Z,1014.10
2023-04-20T08:24:32.524Z,1014.14
2023-04-20T08:25:32.500Z,1014.18
2023-04-20T08:26:32.514Z,1014.19
2023-04-20T08:27:32.512Z,1014.12
2023-04-20T08:28:33.897Z,1014.16
2023-04-20T08:29:32.516Z,1014.14
2023-04-20T08:30:32.754Z,1014.12
2023-04-20T08:31:32.563Z,1014.14
2023-04-20T08:32:32.549Z,1014.15
2023-04-20T08:33:32.476Z,1014.16
2023-04-20T08:34:32.480Z,1014.07
2023-04-20T08:35:32.491Z,1014.10
2023-04-20T08:36:32.481Z,1014.09
2023-04-20T08:37:33.032Z,1014.14
2023-04-20T08:38:34.224Z,1014.13
2023-04-20T08:39:33.078Z,1014.22
2023-04-20T08:40:32.496Z,1014.17
2023-04-20T08:41:32.472Z,1014.17
2023-04-20T08:42:32.478Z,1014.22
2023-04-20T08:43:32.523Z,1014.18
2023-04-20T08:44:32.453Z,1014.13
2023-04-20T08:45:32.482Z,1014.09
2023-04-20T08:46:32.769Z,1014.16
2023-04-20T08:47:32.553Z,1014.15
2023-04-20T08:48:33.708Z,1014.17
2023-04-20T08:49:32.453Z,1014.19
2023-04-20T08:50:32.460Z,1014.26
2023-04-20T08:51:32.772Z,1014.23
2023-04-20T08:52:32.512Z,1014.24
2023-04-20T08:53:32.438Z,1014.28
2023-04-20T08:54:32.624Z,1014.25
2023-04-20T08:55:32.461Z,1014.27
2023-04-20T08:56:32.463Z,1014.26
2023-04-20T08:57:32.440Z,1014.31
2023-04-20T08:58:32.451Z,1014.30
2023-04-20T08:59:32.416Z,1014.32
2023-04-20T09:00:32.422Z,1014.18
2023-04-20T09:01:35.732Z,1014.19
2023-04-20T09:02:32.525Z,1014.15
2023-04-20T09:03:32.642Z,1014.13
2023-04-20T09:04:32.447Z,1014.14
2023-04-20T09:05:32.457Z,1014.19
2023-04-20T09:06:32.475Z,1014.17
2023-04-20T09:07:32.473Z,1014.20
2023-04-20T09:08:32.437Z,1014.18
2023-04-20T09:09:32.411Z,1014.14
2023-04-20T09:10:32.412Z,1014.10
2023-04-20T09:11:32.398Z,1014.12
2023-04-20T09:12:32.415Z,1014.08
2023-04-20T09:13:32.391Z,1014.11
2023-04-20T09:14:32.564Z,1014.13
2023-04-20T09:15:32.405Z,1014.12
2023-04-20T09:16:32.481Z,1014.14
2023-04-20T09:17:32.477Z,1014.12
2023-04-20T09:18:32.432Z,1014.09
2023-04-20T09:19:32.442Z,1014.06
2023-04-20T09:20:32.413Z,1014.04
2023-04-20T09:21:32.452Z,1014.09
2023-04-20T09:22:32.404Z,1014.06
2023-04-20T09:23:32.375Z,1014.05
2023-04-20T09:24:32.480Z,1014.00
2023-04-20T09:25:32.398Z,1014.08
2023-04-20T09:30:05.109Z,1014.13
2023-04-20T09:31:32.682Z,1014.09
2023-04-20T09:32:05.112Z,1014.19
2023-04-20T09:33:05.186Z,1014.13
2023-04-20T09:34:05.794Z,1014.19
2023-04-20T09:35:04.996Z,1014.17
2023-04-20T09:36:05.110Z,1014.14
2023-04-20T09:37:06.843Z,1014.16
2023-04-20T09:38:05.028Z,1014.15
2023-04-20T09:39:04.964Z,1014.15
2023-04-20T09:40:04.961Z,1014.16
2023-04-20T09:41:05.342Z,1014.11
2023-04-20T09:42:05.005Z,1014.11
2023-04-20T09:43:04.988Z,1014.12
2023-04-20T09:44:04.973Z,1014.10
2023-04-20T09:45:05.398Z,1014.11
2023-04-20T09:46:05.126Z,1014.04
2023-04-20T09:47:05.183Z,1014.07
2023-04-20T09:48:05.578Z,1014.09
2023-04-20T09:49:04.992Z,1014.11
2023-04-20T09:50:19.255Z,1014.07
2023-04-20T09:51:04.986Z,1014.06
2023-04-20T09:52:05.015Z,1014.04
2023-04-20T09:53:04.961Z,1014.00
2023-04-20T09:54:04.973Z,1014.07
2023-04-20T09:55:04.973Z,1014.03
2023-04-20T09:56:05.038Z,1014.05
2023-04-20T09:57:05.000Z,1014.01
2023-04-20T09:58:05.003Z,1013.99
2023-04-20T09:59:04.955Z,1013.98
2023-04-20T10:01:05.076Z,1014.00
2023-04-20T10:02:05.089Z,1014.06
2023-04-20T10:13:23.144Z,1014.04
2023-04-20T10:14:23.097Z,1013.99
2023-04-20T10:15:23.057Z,1013.97
2023-04-20T10:16:23.146Z,1013.95
2023-04-20T10:17:23.255Z,1013.96
2023-04-20T10:18:23.238Z,1013.96
2023-04-20T10:19:23.037Z,1013.96
2023-04-20T10:20:23.077Z,1013.94
2023-04-20T10:21:23.059Z,1013.93
2023-04-20T10:22:23.023Z,1013.90
2023-04-20T10:23:23.030Z,1013.88
2023-04-20T10:24:23.274Z,1013.92
2023-04-20T10:25:23.064Z,1013.90
2023-04-20T10:26:23.056Z,1013.92
2023-04-20T10:27:23.116Z,1013.91
2023-04-20T10:28:23.071Z,1013.92
2023-04-20T10:29:23.116Z,1013.93
2023-04-20T10:30:23.019Z,1013.95
2023-04-20T10:31:23.074Z,1013.96
2023-04-20T10:32:23.154Z,1013.84
2023-04-20T10:33:23.117Z,1013.87
2023-04-20T10:34:23.073Z,1013.93
2023-04-20T10:35:23.004Z,1013.88
2023-04-20T10:36:23.007Z,1013.91
2023-04-20T10:37:23.002Z,1013.91
2023-04-20T10:38:23.731Z,1013.95
2023-04-20T10:39:23.292Z,1013.96
2023-04-20T10:40:23.043Z,1013.92
2023-04-20T10:41:23.119Z,1013.96
2023-04-20T10:42:22.996Z,1013.87
2023-04-20T10:43:23.586Z,1013.85
2023-04-20T10:44:23.035Z,1013.82
2023-04-20T10:45:23.056Z,1013.85
2023-04-20T10:46:23.199Z,1013.84
2023-04-20T10:47:23.138Z,1013.80
2023-04-20T10:48:22.991Z,1013.88
2023-04-20T10:49:23.067Z,1013.88
2023-04-20T10:50:23.014Z,1013.85
2023-04-20T10:51:23.021Z,1013.79
2023-04-20T10:52:23.006Z,1013.80
2023-04-20T10:53:23.154Z,1013.83
2023-04-20T10:54:23.032Z,1013.80
2023-04-20T10:55:23.010Z,1013.84
2023-04-20T10:56:23.017Z,1013.85
2023-04-20T10:57:22.985Z,1013.81
2023-04-20T10:58:22.992Z,1013.89
2023-04-20T10:59:23.005Z,1013.86
2023-04-20T11:00:23.005Z,1013.90
2023-04-20T11:01:23.260Z,1013.88
2023-04-20T11:02:23.307Z,1013.91
2023-04-20T11:03:23.068Z,1013.95
2023-04-20T11:04:23.014Z,1013.92
2023-04-20T11:05:23.412Z,1013.94
2023-04-20T11:06:23.001Z,1013.94
2023-04-20T11:07:23.047Z,1013.94
2023-04-20T11:08:22.998Z,1013.95
2023-04-20T11:09:23.045Z,1013.91
2023-04-20T11:10:23.008Z,1013.93
2023-04-20T11:11:23.036Z,1013.95
2023-04-20T11:12:23.004Z,1013.95
2023-04-20T11:13:23.620Z,1013.94
2023-04-20T11:14:23.036Z,1013.95
2023-04-20T11:15:23.084Z,1013.92
2023-04-20T11:16:30.461Z,1013.83
2023-04-20T11:17:23.253Z,1013.97
2023-04-20T11:18:25.116Z,1013.84
2023-04-20T11:19:23.169Z,1013.88
2023-04-20T11:20:22.990Z,1013.86
2023-04-20T11:21:31.717Z,1013.86
2023-04-20T11:22:23.014Z,1013.88
2023-04-20T11:23:22.972Z,1013.85
2023-04-20T11:24:31.219Z,1013.88
2023-04-20T11:25:23.612Z,1013.86
2023-04-20T11:26:23.102Z,1013.84
2023-04-20T11:27:23.164Z,1013.89
2023-04-20T11:28:24.775Z,1013.93
2023-04-20T11:29:23.070Z,1013.86
2023-04-20T11:30:24.135Z,1013.84
2023-04-20T11:31:24.140Z,1013.83
2023-04-20T11:32:23.283Z,1013.83
2023-04-20T11:33:23.177Z,1013.86
2023-04-20T11:34:22.958Z,1013.81
2023-04-20T11:35:23.060Z,1013.82
2023-04-20T11:36:23.010Z,1013.82
2023-04-20T11:37:22.984Z,1013.73
2023-04-20T11:38:22.993Z,1013.79
2023-04-20T11:39:22.998Z,1013.74
2023-04-20T11:40:22.930Z,1013.82
2023-04-20T11:41:23.037Z,1013.81
2023-04-20T11:42:22.983Z,1013.78
2023-04-20T11:43:23.081Z,1013.83
2023-04-20T11:44:22.986Z,1013.76
2023-04-20T11:45:22.962Z,1013.81
2023-04-20T11:46:23.076Z,1013.74
2023-04-20T11:47:23.101Z,1013.70
2023-04-20T11:48:22.938Z,1013.67
2023-04-20T11:49:22.947Z,1013.72
2023-04-20T11:50:22.946Z,1013.68
2023-04-20T11:51:23.000Z,1013.66
2023-04-20T11:52:22.936Z,1013.70
2023-04-20T11:53:22.987Z,1013.70
2023-04-20T11:54:22.980Z,1013.81
2023-04-20T11:55:22.928Z,1013.71
2023-04-20T11:56:23.154Z,1013.70
2023-04-20T11:57:23.019Z,1013.72
2023-04-20T11:58:22.978Z,1013.67
2023-04-20T11:59:23.943Z,1013.62
2023-04-20T12:00:23.049Z,1013.63
2023-04-20T12:01:23.036Z,1013.61
2023-04-20T12:02:23.238Z,1013.59
2023-04-20T12:03:23.177Z,1013.58
2023-04-20T12:04:23.441Z,1013.69
2023-04-20T12:05:23.153Z,1013.63
2023-04-20T12:06:23.172Z,1013.68
2023-04-20T12:07:23.009Z,1013.61
2023-04-20T12:08:23.034Z,1013.64
2023-04-20T12:09:23.046Z,1013.69
2023-04-20T12:10:22.986Z,1013.68
2023-04-20T12:11:22.977Z,1013.71
2023-04-20T12:12:22.996Z,1013.64
2023-04-20T12:13:23.004Z,1013.65
2023-04-20T12:14:23.018Z,1013.61
2023-04-20T12:15:22.953Z,1013.60
2023-04-20T12:16:22.985Z,1013.65
2023-04-20T12:17:23.172Z,1013.64
2023-04-20T12:18:22.961Z,1013.70
2023-04-20T12:19:22.960Z,1013.71
2023-04-20T12:20:23.020Z,1013.68
2023-04-20T12:21:23.865Z,1013.64
2023-04-20T12:22:23.062Z,1013.59
2023-04-20T12:23:23.032Z,1013.59
2023-04-20T12:24:23.045Z,1013.64
2023-04-20T12:25:23.043Z,1013.63
2023-04-20T12:26:31.981Z,1013.63
2023-04-20T12:27:23.055Z,1013.66
2023-04-20T12:28:23.031Z,1013.65
2023-04-20T12:29:22.970Z,1013.68
2023-04-20T12:30:23.004Z,1013.63
2023-04-20T12:31:25.107Z,1013.66
2023-04-20T12:32:23.046Z,1013.72
2023-04-20T12:33:23.071Z,1013.58
2023-04-20T12:34:23.029Z,1013.56
2023-04-20T12:35:22.981Z,1013.65
2023-04-20T12:36:23.049Z,1013.55
2023-04-20T12:37:23.061Z,1013.62
2023-04-20T12:38:23.009Z,1013.64
2023-04-20T12:39:23.010Z,1013.57
2023-04-20T12:40:23.002Z,1013.57
2023-04-20T12:41:23.050Z,1013.54
2023-04-20T12:42:23.033Z,1013.53
2023-04-20T12:43:23.081Z,1013.53
2023-04-20T12:44:23.002Z,1013.53
2023-04-20T12:45:23.045Z,1013.52
2023-04-20T12:46:23.257Z,1013.53
2023-04-20T12:47:23.242Z,1013.50
2023-04-20T12:48:23.195Z,1013.53
2023-04-20T12:49:23.099Z,1013.50
2023-04-20T12:50:23.073Z,1013.52
2023-04-20T12:51:23.052Z,1013.49
2023-04-20T12:52:23.051Z,1013.47
2023-04-20T12:53:23.130Z,1013.44
2023-04-20T12:54:23.036Z,1013.51
2023-04-20T12:55:23.018Z,1013.44
2023-04-20T12:56:23.004Z,1013.44
2023-04-20T12:57:23.099Z,1013.43
2023-04-20T12:58:23.118Z,1013.43
2023-04-20T12:59:23.056Z,1013.43
2023-04-20T13:00:23.044Z,1013.41
2023-04-20T13:01:23.246Z,1013.43
2023-04-20T13:02:23.377Z,1013.38
2023-04-20T13:03:23.334Z,1013.46
2023-04-20T13:04:23.764Z,1013.40
2023-04-20T13:05:23.069Z,1013.34
2023-04-20T13:06:23.038Z,1013.35
2023-04-20T13:07:23.008Z,1013.35
2023-04-20T13:09:23.167Z,1013.25
2023-04-20T13:10:23.046Z,1013.38
2023-04-20T13:11:23.619Z,1013.32
2023-04-20T13:12:23.093Z,1013.36
2023-04-20T13:13:23.108Z,1013.37
2023-04-20T13:14:23.027Z,1013.34
2023-04-20T13:15:35.556Z,1013.37
2023-04-20T13:16:23.112Z,1013.36
2023-04-20T13:17:23.227Z,1013.33
2023-04-20T13:19:55.761Z,1013.38
2023-04-20T13:20:55.729Z,1013.27
2023-04-20T13:21:55.724Z,1013.31
2023-04-20T13:22:58.302Z,1013.26
2023-04-20T13:23:56.965Z,1013.28
2023-04-20T13:24:55.762Z,1013.24
2023-04-20T13:25:55.728Z,1013.25
2023-04-20T13:26:55.706Z,1013.27
2023-04-20T13:27:55.764Z,1013.22
2023-04-20T13:28:55.716Z,1013.22
2023-04-20T13:29:55.839Z,1013.21
2023-04-20T13:30:55.722Z,1013.14
2023-04-20T13:31:55.787Z,1013.15
2023-04-20T13:32:55.854Z,1013.12
2023-04-20T13:33:55.749Z,1013.14
2023-04-20T13:34:55.759Z,1013.16
2023-04-20T13:35:55.744Z,1013.15
2023-04-20T13:36:55.742Z,1013.18
2023-04-20T13:37:55.752Z,1013.14
2023-04-20T13:38:55.761Z,1013.09
2023-04-20T13:39:55.772Z,1013.09
2023-04-20T13:40:55.804Z,1013.12
2023-04-20T13:41:55.892Z,1013.17
2023-04-20T13:42:55.914Z,1013.20
2023-04-20T13:43:55.944Z,1013.13
2023-04-20T13:44:55.841Z,1013.08
2023-04-20T13:45:56.782Z,1013.07
2023-04-20T13:46:55.767Z,1013.09
2023-04-20T13:47:55.846Z,1013.03
2023-04-20T13:48:55.759Z,1013.01
2023-04-20T13:49:55.825Z,1013.02
2023-04-20T13:50:55.826Z,1013.04
2023-04-20T13:51:55.781Z,1012.96
2023-04-20T13:52:55.824Z,1012.95
2023-04-20T13:53:55.775Z,1012.94
2023-04-20T13:54:55.784Z,1012.94
2023-04-20T13:55:55.814Z,1012.90
2023-04-20T13:56:55.790Z,1012.92
2023-04-20T13:57:55.810Z,1012.91
2023-04-20T13:58:55.760Z,1012.98
2023-04-20T13:59:55.825Z,1012.93
2023-04-20T14:00:55.813Z,1012.90
2023-04-20T14:01:55.774Z,1012.81
2023-04-20T14:02:55.810Z,1012.76
2023-04-20T14:03:55.961Z,1012.76
2023-04-20T14:04:55.880Z,1012.77
2023-04-20T14:05:55.774Z,1012.74
2023-04-20T14:06:55.772Z,1012.76
2023-04-20T14:07:55.771Z,1012.74
2023-04-20T14:08:55.823Z,1012.75
2023-04-20T14:09:55.821Z,1012.69
2023-04-20T14:10:55.792Z,1012.74
2023-04-20T14:11:57.145Z,1012.72
2023-04-20T14:12:55.802Z,1012.68
2023-04-20T14:13:55.842Z,1012.73
2023-04-20T14:14:55.792Z,1012.69
2023-04-20T14:15:55.811Z,1012.71
2023-04-20T14:16:55.815Z,1012.64
2023-04-20T14:17:55.909Z,1012.67
2023-04-20T14:18:55.830Z,1012.69
2023-04-20T14:19:55.858Z,1012.58
2023-04-20T14:20:55.817Z,1012.55
2023-04-20T14:21:55.864Z,1012.61
2023-04-20T14:22:55.808Z,1012.59
2023-04-20T14:23:55.822Z,1012.59
2023-04-20T14:24:55.803Z,1012.62
2023-04-20T14:25:55.816Z,1012.56
2023-04-20T14:26:55.867Z,1012.53
2023-04-20T14:27:55.819Z,1012.55
2023-04-20T14:28:55.877Z,1012.53
2023-04-20T14:29:55.823Z,1012.46
2023-04-20T14:30:55.876Z,1012.45
2023-04-20T14:31:55.884Z,1012.48
2023-04-20T14:32:55.856Z,1012.55
2023-04-20T14:33:55.852Z,1012.47
2023-04-20T14:34:55.865Z,1012.50
2023-04-20T14:35:55.867Z,1012.54
2023-04-20T14:36:55.855Z,1012.43
2023-04-20T14:37:55.872Z,1012.45
2023-04-20T14:38:55.877Z,1012.45
2023-04-20T14:39:55.897Z,1012.44
2023-04-20T14:40:55.900Z,1012.40
2023-04-20T14:41:55.973Z,1012.44
2023-04-20T14:42:55.871Z,1012.39
2023-04-20T14:43:55.902Z,1012.43
2023-04-20T14:44:55.934Z,1012.38
2023-04-20T14:45:55.912Z,1012.37
2023-04-20T14:46:55.963Z,1012.33
2023-04-20T14:47:55.899Z,1012.35
2023-04-20T14:48:55.907Z,1012.30
2023-04-20T14:49:55.927Z,1012.27
2023-04-20T14:50:55.958Z,1012.26
2023-04-20T14:51:55.889Z,1012.25
2023-04-20T14:52:55.898Z,1012.20
2023-04-20T14:53:55.923Z,1012.22
2023-04-20T14:54:55.908Z,1012.19
2023-04-20T14:55:55.920Z,1012.18
2023-04-20T14:56:55.909Z,1012.17
2023-04-20T14:57:55.922Z,1012.17
2023-04-20T14:58:55.917Z,1012.17
2023-04-20T14:59:55.923Z,1012.12
2023-04-20T15:00:55.934Z,1012.14
2023-04-20T15:02:03.129Z,1012.12
2023-04-20T15:02:56.154Z,1012.21
2023-04-20T15:03:56.193Z,1012.17
2023-04-20T15:04:56.074Z,1012.05
2023-04-20T15:05:56.195Z,1012.10
2023-04-20T15:06:55.919Z,1012.11
2023-04-20T15:07:55.911Z,1012.03
2023-04-20T15:08:55.897Z,1012.01
2023-04-20T15:09:55.962Z,1012.07
2023-04-20T15:10:55.927Z,1012.01
2023-04-20T15:11:55.950Z,1012.02
2023-04-20T15:12:55.924Z,1012.03
2023-04-20T15:13:55.934Z,1012.01
2023-04-20T15:14:55.952Z,1012.03
2023-04-20T15:15:55.967Z,1012.05
2023-04-20T15:16:56.049Z,1011.93
2023-04-20T15:17:56.017Z,1012.05
2023-04-20T15:18:55.974Z,1012.10
2023-04-20T15:19:55.937Z,1012.04
2023-04-20T15:20:55.987Z,1011.99
2023-04-20T15:21:55.944Z,1012.12
2023-04-20T15:22:55.952Z,1012.07
2023-04-20T15:23:55.937Z,1012.14
2023-04-20T15:24:55.936Z,1012.13
2023-04-20T15:25:55.966Z,1012.07
2023-04-20T15:26:55.936Z,1012.06
2023-04-20T15:27:56.019Z,1012.05
2023-04-20T15:28:55.935Z,1012.05
2023-04-20T15:29:55.936Z,1012.08
2023-04-20T15:30:55.967Z,1012.09
2023-04-20T15:31:55.993Z,1012.07
2023-04-20T15:32:56.016Z,1012.09
2023-04-20T15:33:55.936Z,1012.12
2023-04-20T15:34:55.927Z,1012.08
2023-04-20T15:35:55.954Z,1012.08
2023-04-20T15:36:55.944Z,1012.05
2023-04-20T15:37:55.948Z,1012.05
2023-04-20T15:38:57.707Z,1012.10
2023-04-20T15:39:55.994Z,1012.10
2023-04-20T15:40:55.991Z,1012.05
2023-04-20T15:41:55.941Z,1012.08
2023-04-20T15:42:55.924Z,1012.11
2023-04-20T15:43:55.966Z,1012.09
2023-04-20T15:44:55.938Z,1012.15
2023-04-20T15:45:56.004Z,1012.12
2023-04-20T15:46:55.938Z,1012.18
2023-04-20T15:47:56.011Z,1012.15
2023-04-20T15:48:55.977Z,1012.14
2023-04-20T15:49:55.927Z,1012.15
2023-04-20T15:50:55.934Z,1012.17
2023-04-20T15:51:55.944Z,1012.18
2023-04-20T15:52:55.953Z,1012.17
2023-04-20T15:53:55.951Z,1012.16
2023-04-20T15:54:55.933Z,1012.20
2023-04-20T15:55:55.935Z,1012.15
2023-04-20T15:56:55.930Z,1012.18
2023-04-20T15:57:55.974Z,1012.13
2023-04-20T15:58:55.927Z,1012.14
2023-04-20T15:59:55.924Z,1012.10
2023-04-20T16:00:55.940Z,1012.14
2023-04-20T16:12:30.457Z,1012.21
2023-04-20T16:13:30.427Z,1012.28
2023-04-20T16:14:30.426Z,1012.21
2023-04-20T16:15:30.495Z,1012.26
2023-04-20T16:16:30.534Z,1012.22
2023-04-20T16:17:30.480Z,1012.20
2023-04-20T16:18:30.373Z,1012.20
2023-04-20T16:19:30.419Z,1012.19
2023-04-20T16:20:30.380Z,1012.19
2023-04-20T16:21:30.383Z,1012.26
2023-04-20T16:22:30.379Z,1012.31
2023-04-20T16:23:30.388Z,1012.28
2023-04-20T16:24:30.389Z,1012.30
2023-04-20T16:25:30.593Z,1012.34
2023-04-20T16:26:30.356Z,1012.27
2023-04-20T16:27:30.378Z,1012.26
2023-04-20T16:28:30.380Z,1012.26
2023-04-20T16:29:30.390Z,1012.25
2023-04-20T16:30:30.368Z,1012.27
2023-04-20T16:31:30.400Z,1012.23
2023-04-20T16:32:30.448Z,1012.28
2023-04-20T16:33:30.330Z,1012.25
2023-04-20T16:34:30.338Z,1012.28
2023-04-20T16:35:30.356Z,1012.24